createdAt,value
2018-03-21T00:00:06.792Z,1.84
2018-03-21T00:01:06.706Z,1.88
2018-03-21T00:02:06.621Z,1.84
2018-03-21T00:03:06.532Z,1.88
2018-03-21T00:04:06.446Z,1.94
2018-03-21T00:05:06.365Z,1.92
2018-03-21T00:06:06.275Z,1.94
2018-03-21T00:07:06.223Z,1.94
2018-03-21T00:08:06.117Z,1.97
2018-03-21T00:09:06.031Z,1.97
2018-03-21T00:10:05.931Z,1.88
2018-03-21T00:11:05.845Z,2.00
2018-03-21T00:12:05.759Z,1.99
2018-03-21T00:13:05.673Z,1.97
2018-03-21T00:14:05.587Z,1.95
2018-03-21T00:15:05.509Z,1.94
2018-03-21T00:16:05.419Z,2.07
2018-03-21T00:17:05.329Z,2.00
2018-03-21T00:18:05.270Z,1.97
2018-03-21T00:19:05.176Z,1.95
2018-03-21T00:20:05.074Z,1.95
2018-03-21T00:21:04.990Z,1.92
2018-03-21T00:22:04.903Z,1.88
2018-03-21T00:23:04.817Z,1.94
2018-03-21T00:24:04.729Z,1.91
2018-03-21T00:25:04.653Z,1.89
2018-03-21T00:26:04.560Z,1.77
2018-03-21T00:27:04.474Z,1.80
2018-03-21T00:28:04.388Z,1.77
2018-03-21T00:29:04.307Z,1.80
2018-03-21T00:30:04.219Z,1.88
2018-03-21T00:31:04.134Z,1.85
2018-03-21T00:32:04.073Z,1.88
2018-03-21T00:33:03.957Z,1.91
2018-03-21T00:34:03.872Z,1.88
2018-03-21T00:35:03.843Z,1.95
2018-03-21T00:36:03.701Z,1.88
2018-03-21T00:37:03.618Z,1.84
2018-03-21T00:38:03.530Z,1.87
2018-03-21T00:39:03.464Z,1.87
2018-03-21T00:40:03.371Z,1.81
2018-03-21T00:41:03.273Z,1.85
2018-03-21T00:42:03.184Z,1.88
2018-03-21T00:43:03.101Z,1.85
2018-03-21T00:44:03.023Z,1.88
2018-03-21T00:45:03.056Z,1.84
2018-03-21T00:46:02.848Z,1.76
2018-03-21T00:47:02.757Z,1.76
2018-03-21T00:48:02.673Z,1.80
2018-03-21T00:49:02.587Z,1.77
2018-03-21T00:50:02.499Z,1.84
2018-03-21T00:51:02.415Z,1.76
2018-03-21T00:52:02.328Z,1.77
2018-03-21T00:53:02.247Z,1.74
2018-03-21T00:54:02.155Z,1.77
2018-03-21T00:55:02.071Z,1.80
2018-03-21T00:56:01.981Z,1.81
2018-03-21T00:57:01.897Z,1.74
2018-03-21T00:58:01.815Z,1.71
2018-03-21T00:59:01.726Z,1.77
2018-03-21T01:00:01.644Z,1.76
2018-03-21T01:01:01.553Z,1.68
2018-03-21T01:02:01.470Z,1.67
2018-03-21T01:03:01.382Z,1.73
2018-03-21T01:04:01.297Z,1.68
2018-03-21T01:05:01.207Z,1.70
2018-03-21T01:06:01.121Z,1.70
2018-03-21T01:07:01.037Z,1.73
2018-03-21T01:08:00.948Z,1.70
2018-03-21T01:09:00.863Z,1.68
2018-03-21T01:10:00.778Z,1.73
2018-03-21T01:11:00.715Z,1.67
2018-03-21T01:12:00.605Z,1.77
2018-03-21T01:13:00.517Z,1.78
2018-03-21T01:14:00.433Z,1.70
2018-03-21T01:15:00.351Z,1.59
2018-03-21T01:16:00.260Z,1.68
2018-03-21T01:17:00.176Z,1.70
2018-03-21T01:18:00.088Z,1.62
2018-03-21T01:19:00.010Z,1.62
2018-03-21T01:19:59.918Z,1.71
2018-03-21T01:20:59.835Z,1.68
2018-03-21T01:21:59.746Z,1.59
2018-03-21T01:22:59.663Z,1.67
2018-03-21T01:23:59.586Z,1.68
2018-03-21T01:24:59.484Z,1.62
2018-03-21T01:25:59.403Z,1.66
2018-03-21T01:26:59.314Z,1.63
2018-03-21T01:27:59.228Z,1.70
2018-03-21T01:28:59.142Z,1.70
2018-03-21T01:29:59.099Z,1.63
2018-03-21T01:30:58.970Z,1.62
2018-03-21T01:31:58.892Z,1.67
2018-03-21T01:32:58.827Z,1.62
2018-03-21T01:33:58.714Z,1.63
2018-03-21T01:34:58.631Z,1.62
2018-03-21T01:35:58.539Z,1.63
2018-03-21T01:36:58.457Z,1.63
2018-03-21T01:37:58.368Z,1.62
2018-03-21T01:38:58.280Z,1.59
2018-03-21T01:39:58.198Z,1.60
2018-03-21T01:40:58.108Z,1.60
2018-03-21T01:41:58.038Z,1.62
2018-03-21T01:42:57.962Z,1.60
2018-03-21T01:43:57.853Z,1.50
2018-03-21T01:44:57.775Z,1.55
2018-03-21T01:45:57.679Z,1.58
2018-03-21T01:46:57.598Z,1.50
2018-03-21T01:47:57.509Z,1.58
2018-03-21T01:48:57.418Z,1.55
2018-03-21T01:49:57.335Z,1.58
2018-03-21T01:50:57.247Z,1.52
2018-03-21T01:51:57.221Z,1.50
2018-03-21T01:52:57.104Z,1.55
2018-03-21T01:53:57.017Z,1.59
2018-03-21T01:54:56.913Z,1.60
2018-03-21T01:55:56.816Z,1.56
2018-03-21T01:56:56.730Z,1.49
2018-03-21T01:57:56.645Z,1.52
2018-03-21T01:58:56.561Z,1.48
2018-03-21T01:59:56.477Z,1.56
2018-03-21T02:00:56.385Z,1.50
2018-03-21T02:01:56.299Z,1.53
2018-03-21T02:02:56.213Z,1.45
2018-03-21T02:03:56.174Z,1.50
2018-03-21T02:04:56.044Z,1.58
2018-03-21T02:05:55.955Z,1.52
2018-03-21T02:06:55.867Z,1.45
2018-03-21T02:07:55.843Z,1.52
2018-03-21T02:08:55.703Z,1.58
2018-03-21T02:09:55.613Z,1.45
2018-03-21T02:10:55.523Z,1.49
2018-03-21T02:11:55.437Z,1.48
2018-03-21T02:12:55.350Z,1.52
2018-03-21T02:13:55.263Z,1.53
2018-03-21T02:14:55.179Z,1.53
2018-03-21T02:15:55.098Z,1.50
2018-03-21T02:16:55.030Z,1.48
2018-03-21T02:17:54.921Z,1.49
2018-03-21T02:18:54.836Z,1.48
2018-03-21T02:19:54.746Z,1.48
2018-03-21T02:20:55.385Z,1.52
2018-03-21T02:21:54.572Z,1.49
2018-03-21T02:22:54.490Z,1.38
2018-03-21T02:23:54.400Z,1.40
2018-03-21T02:24:54.314Z,1.42
2018-03-21T02:25:54.228Z,1.40
2018-03-21T02:26:54.142Z,1.35
2018-03-21T02:27:54.067Z,1.37
2018-03-21T02:28:53.983Z,1.34
2018-03-21T02:29:53.881Z,1.37
2018-03-21T02:30:53.804Z,1.26
2018-03-21T02:31:53.708Z,1.24
2018-03-21T02:32:53.622Z,1.31
2018-03-21T02:33:53.535Z,1.37
2018-03-21T02:34:53.450Z,1.35
2018-03-21T02:35:53.368Z,1.26
2018-03-21T02:36:53.277Z,1.31
2018-03-21T02:37:53.192Z,1.20
2018-03-21T02:38:53.115Z,1.28
2018-03-21T02:39:53.020Z,1.22
2018-03-21T02:40:52.930Z,1.30
2018-03-21T02:41:52.899Z,1.30
2018-03-21T02:42:52.788Z,1.20
2018-03-21T02:43:52.670Z,1.23
2018-03-21T02:44:52.583Z,1.10
2018-03-21T02:45:52.509Z,1.20
2018-03-21T02:46:52.411Z,1.14
2018-03-21T02:47:52.344Z,1.10
2018-03-21T02:48:52.237Z,1.01
2018-03-21T02:49:52.178Z,1.04
2018-03-21T02:50:52.066Z,1.05
2018-03-21T02:51:51.976Z,1.04
2018-03-21T02:52:51.891Z,0.99
2018-03-21T02:53:51.803Z,1.04
2018-03-21T02:54:51.717Z,1.06
2018-03-21T02:55:51.640Z,1.02
2018-03-21T02:56:51.543Z,0.96
2018-03-21T02:57:51.460Z,0.94
2018-03-21T02:58:51.369Z,0.98
2018-03-21T02:59:51.283Z,0.95
2018-03-21T03:00:51.204Z,0.95
2018-03-21T03:01:51.125Z,0.87
2018-03-21T03:02:51.028Z,0.91
2018-03-21T03:03:50.937Z,0.87
2018-03-21T03:04:50.850Z,0.92
2018-03-21T03:05:50.765Z,0.81
2018-03-21T03:06:50.680Z,0.86
2018-03-21T03:07:50.590Z,0.84
2018-03-21T03:08:50.526Z,0.78
2018-03-21T03:09:50.418Z,0.88
2018-03-21T03:10:50.333Z,0.80
2018-03-21T03:11:50.251Z,0.84
2018-03-21T03:12:50.154Z,0.69
2018-03-21T03:13:50.068Z,0.66
2018-03-21T03:14:49.981Z,0.66
2018-03-21T03:15:49.893Z,0.62
2018-03-21T03:16:49.808Z,0.66
2018-03-21T03:17:49.722Z,0.69
2018-03-21T03:18:49.634Z,0.69
2018-03-21T03:19:49.546Z,0.65
2018-03-21T03:20:49.458Z,0.62
2018-03-21T03:21:49.372Z,0.60
2018-03-21T03:22:49.302Z,0.60
2018-03-21T03:23:49.201Z,0.50
2018-03-21T03:24:49.109Z,0.56
2018-03-21T03:25:49.029Z,0.52
2018-03-21T03:26:48.936Z,0.62
2018-03-21T03:27:48.871Z,0.52
2018-03-21T03:28:48.761Z,0.52
2018-03-21T03:29:48.673Z,0.52
2018-03-21T03:30:48.592Z,0.49
2018-03-21T03:31:48.501Z,0.41
2018-03-21T03:32:48.411Z,0.40
2018-03-21T03:33:48.327Z,0.43
2018-03-21T03:34:48.238Z,0.43
2018-03-21T03:35:48.171Z,0.40
2018-03-21T03:36:48.063Z,0.43
2018-03-21T03:37:47.986Z,0.41
2018-03-21T03:38:47.890Z,0.43
2018-03-21T03:39:47.801Z,0.43
2018-03-21T03:40:47.714Z,0.34
2018-03-21T03:41:47.627Z,0.39
2018-03-21T03:42:47.540Z,0.34
2018-03-21T03:43:47.451Z,0.28
2018-03-21T03:44:47.365Z,0.39
2018-03-21T03:45:47.278Z,0.34
2018-03-21T03:46:47.206Z,0.32
2018-03-21T03:47:47.104Z,0.25
2018-03-21T03:48:47.014Z,0.22
2018-03-21T03:49:46.935Z,0.28
2018-03-21T03:50:46.840Z,0.28
2018-03-21T03:51:46.784Z,0.28
2018-03-21T03:52:46.669Z,0.23
2018-03-21T03:53:46.579Z,0.23
2018-03-21T03:54:46.499Z,0.19
2018-03-21T03:55:46.405Z,0.10
2018-03-21T03:56:46.315Z,0.16
2018-03-21T03:57:46.230Z,0.16
2018-03-21T03:58:46.138Z,0.12
2018-03-21T03:59:46.071Z,0.08
2018-03-21T04:00:45.965Z,0.05
2018-03-21T04:01:45.877Z,0.03
2018-03-21T04:02:45.796Z,0.08
2018-03-21T04:03:45.705Z,0.07
2018-03-21T04:04:45.615Z,0.08
2018-03-21T04:05:45.528Z,0.04
2018-03-21T04:06:45.441Z,0.00
2018-03-21T04:07:45.350Z,0.04
2018-03-21T04:08:45.263Z,0.01
2018-03-21T04:09:45.182Z,-0.03
2018-03-21T04:10:45.089Z,-0.03
2018-03-21T04:11:45.004Z,-0.06
2018-03-21T04:12:44.912Z,-0.10
2018-03-21T04:13:44.844Z,-0.03
2018-03-21T04:14:44.748Z,-0.03
2018-03-21T04:15:44.650Z,-0.11
2018-03-21T04:16:44.563Z,-0.15
2018-03-21T04:17:44.476Z,-0.02
2018-03-21T04:18:44.390Z,-0.11
2018-03-21T04:19:44.298Z,-0.10
2018-03-21T04:20:44.210Z,-0.11
2018-03-21T04:21:44.123Z,-0.07
2018-03-21T04:22:44.036Z,-0.03
2018-03-21T04:23:43.946Z,-0.11
2018-03-21T04:24:43.861Z,-0.17
2018-03-21T04:25:43.772Z,-0.14
2018-03-21T04:26:43.688Z,-0.14
2018-03-21T04:27:43.606Z,-0.20
2018-03-21T04:28:43.508Z,-0.18
2018-03-21T04:29:43.423Z,-0.20
2018-03-21T04:30:43.336Z,-0.14
2018-03-21T04:31:43.245Z,-0.21
2018-03-21T04:32:43.159Z,-0.21
2018-03-21T04:33:43.069Z,-0.21
2018-03-21T04:34:42.992Z,-0.20
2018-03-21T04:35:42.893Z,-0.23
2018-03-21T04:36:42.833Z,-0.28
2018-03-21T04:37:42.720Z,-0.17
2018-03-21T04:38:42.649Z,-0.18
2018-03-21T04:39:42.540Z,-0.18
2018-03-21T04:40:42.464Z,-0.31
2018-03-21T04:41:42.366Z,-0.29
2018-03-21T04:42:42.281Z,-0.29
2018-03-21T04:43:42.190Z,-0.23
2018-03-21T04:44:42.103Z,-0.26
2018-03-21T04:45:42.018Z,-0.28
2018-03-21T04:46:41.929Z,-0.32
2018-03-21T04:47:41.838Z,-0.34
2018-03-21T04:48:41.751Z,-0.29
2018-03-21T04:49:41.663Z,-0.31
2018-03-21T04:50:41.584Z,-0.38
2018-03-21T04:51:41.495Z,-0.36
2018-03-21T04:52:41.399Z,-0.35
2018-03-21T04:53:41.313Z,-0.32
2018-03-21T04:54:41.224Z,-0.35
2018-03-21T04:55:41.137Z,-0.35
2018-03-21T04:56:41.047Z,-0.39
2018-03-21T04:57:40.972Z,-0.44
2018-03-21T04:58:40.871Z,-0.44
2018-03-21T05:01:46.569Z,-0.47
2018-03-21T05:02:46.429Z,-0.41
2018-03-21T05:04:50.218Z,-0.47
2018-03-21T05:05:50.123Z,-0.39
2018-03-21T05:06:50.036Z,-0.43
2018-03-21T05:07:49.950Z,-0.38
2018-03-21T05:08:49.861Z,-0.38
2018-03-21T05:09:49.773Z,-0.41
2018-03-21T05:10:49.798Z,-0.44
2018-03-21T05:11:49.600Z,-0.39
2018-03-21T05:12:49.509Z,-0.39
2018-03-21T05:13:49.418Z,-0.44
2018-03-21T05:14:49.330Z,-0.49
2018-03-21T05:15:49.247Z,-0.49
2018-03-21T05:16:49.156Z,-0.46
2018-03-21T05:17:49.068Z,-0.46
2018-03-21T05:18:48.978Z,-0.44
2018-03-21T05:19:48.893Z,-0.47
2018-03-21T05:20:48.804Z,-0.50
2018-03-21T05:21:48.715Z,-0.39
2018-03-21T05:22:48.628Z,-0.50
2018-03-21T05:23:48.538Z,-0.46
2018-03-21T05:24:48.460Z,-0.44
2018-03-21T05:25:48.364Z,-0.46
2018-03-21T05:26:48.278Z,-0.39
2018-03-21T05:27:48.188Z,-0.47
2018-03-21T05:28:48.100Z,-0.54
2018-03-21T05:29:48.011Z,-0.49
2018-03-21T05:30:47.925Z,-0.43
2018-03-21T05:31:47.836Z,-0.39
2018-03-21T05:32:47.756Z,-0.41
2018-03-21T05:33:47.660Z,-0.44
2018-03-21T05:34:47.573Z,-0.44
2018-03-21T05:35:47.485Z,-0.43
2018-03-21T05:36:47.393Z,-0.43
2018-03-21T05:37:47.308Z,-0.36
2018-03-21T05:38:47.220Z,-0.39
2018-03-21T05:39:47.131Z,-0.43
2018-03-21T05:40:47.041Z,-0.38
2018-03-21T05:41:46.956Z,-0.44
2018-03-21T05:42:46.866Z,-0.39
2018-03-21T05:43:46.778Z,-0.36
2018-03-21T05:44:46.690Z,-0.36
2018-03-21T05:45:46.602Z,-0.41
2018-03-21T05:46:46.515Z,-0.38
2018-03-21T05:47:46.427Z,-0.41
2018-03-21T05:48:46.338Z,-0.46
2018-03-21T05:49:46.251Z,-0.44
2018-03-21T05:50:46.163Z,-0.39
2018-03-21T05:51:46.075Z,-0.41
2018-03-21T05:52:45.986Z,-0.39
2018-03-21T05:53:45.900Z,-0.44
2018-03-21T05:54:45.809Z,-0.34
2018-03-21T05:55:45.723Z,-0.29
2018-03-21T05:56:45.674Z,-0.39
2018-03-21T05:57:45.546Z,-0.29
2018-03-21T05:58:45.460Z,-0.39
2018-03-21T05:59:45.377Z,-0.26
2018-03-21T06:00:45.283Z,-0.32
2018-03-21T06:01:45.196Z,-0.26
2018-03-21T06:02:45.106Z,-0.26
2018-03-21T06:03:45.023Z,-0.21
2018-03-21T06:04:44.941Z,-0.23
2018-03-21T06:05:44.844Z,-0.18
2018-03-21T06:06:44.755Z,-0.13
2018-03-21T06:07:44.667Z,-0.18
2018-03-21T06:08:44.621Z,-0.10
2018-03-21T06:09:44.544Z,-0.13
2018-03-21T06:10:44.406Z,-0.10
2018-03-21T06:11:44.317Z,-0.11
2018-03-21T06:12:44.229Z,-0.17
2018-03-21T06:13:44.143Z,-0.07
2018-03-21T06:14:44.055Z,-0.11
2018-03-21T06:15:43.968Z,-0.06
2018-03-21T06:16:43.877Z,-0.06
2018-03-21T06:17:43.794Z,-0.14
2018-03-21T06:18:43.709Z,-0.08
2018-03-21T06:19:43.636Z,-0.08
2018-03-21T06:20:43.530Z,-0.03
2018-03-21T06:21:43.443Z,0.03
2018-03-21T06:22:43.353Z,0.00
2018-03-21T06:23:43.266Z,0.01
2018-03-21T06:24:43.175Z,0.05
2018-03-21T06:25:43.090Z,0.16
2018-03-21T06:26:43.011Z,0.18
2018-03-21T06:27:42.913Z,0.16
2018-03-21T06:28:42.828Z,0.12
2018-03-21T06:29:42.740Z,0.15
2018-03-21T06:30:42.650Z,0.25
2018-03-21T06:31:42.564Z,0.21
2018-03-21T06:32:42.477Z,0.28
2018-03-21T06:33:42.391Z,0.23
2018-03-21T06:34:42.305Z,0.23
2018-03-21T06:35:42.210Z,0.31
2018-03-21T06:36:42.126Z,0.32
2018-03-21T06:37:42.038Z,0.36
2018-03-21T06:38:41.952Z,0.43
2018-03-21T06:39:41.890Z,0.41
2018-03-21T06:40:41.777Z,0.49
2018-03-21T06:41:41.689Z,0.44
2018-03-21T06:42:41.601Z,0.41
2018-03-21T06:43:41.520Z,0.44
2018-03-21T06:44:41.449Z,0.44
2018-03-21T06:45:41.340Z,0.43
2018-03-21T06:46:41.264Z,0.41
2018-03-21T06:47:41.167Z,0.46
2018-03-21T06:48:41.075Z,0.40
2018-03-21T06:49:40.990Z,0.44
2018-03-21T06:50:40.929Z,0.46
2018-03-21T06:51:40.816Z,0.44
2018-03-21T06:52:40.734Z,0.50
2018-03-21T06:53:40.646Z,0.60
2018-03-21T06:54:40.556Z,0.56
2018-03-21T06:55:40.466Z,0.52
2018-03-21T06:56:40.382Z,0.44
2018-03-21T06:57:40.293Z,0.52
2018-03-21T06:58:40.221Z,0.49
2018-03-21T06:59:40.165Z,0.47
2018-03-21T07:00:40.032Z,0.44
2018-03-21T07:01:39.946Z,0.52
2018-03-21T07:02:39.860Z,0.50
2018-03-21T07:03:40.865Z,0.55
2018-03-21T07:04:39.682Z,0.56
2018-03-21T07:05:39.619Z,0.44
2018-03-21T07:06:39.511Z,0.46
2018-03-21T07:07:39.420Z,0.52
2018-03-21T07:08:39.337Z,0.60
2018-03-21T07:09:39.248Z,0.59
2018-03-21T07:10:39.162Z,0.58
2018-03-21T07:11:39.076Z,0.58
2018-03-21T07:12:38.988Z,0.63
2018-03-21T07:13:38.901Z,0.50
2018-03-21T07:14:38.822Z,0.50
2018-03-21T07:15:38.728Z,0.58
2018-03-21T07:16:38.642Z,0.62
2018-03-21T07:17:38.553Z,0.63
2018-03-21T07:18:38.472Z,0.65
2018-03-21T07:19:38.380Z,0.66
2018-03-21T07:20:38.318Z,0.70
2018-03-21T07:21:38.207Z,0.83
2018-03-21T07:22:38.119Z,0.87
2018-03-21T07:23:38.031Z,0.81
2018-03-21T07:24:37.945Z,0.91
2018-03-21T07:25:37.865Z,0.92
2018-03-21T07:26:37.773Z,0.98
2018-03-21T07:27:37.683Z,1.04
2018-03-21T07:28:37.600Z,0.98
2018-03-21T07:29:37.510Z,0.96
2018-03-21T07:30:37.426Z,0.87
2018-03-21T07:31:37.342Z,0.98
2018-03-21T07:32:37.255Z,0.94
2018-03-21T07:33:37.163Z,1.04
2018-03-21T07:34:37.077Z,1.02
2018-03-21T07:35:37.049Z,1.05
2018-03-21T07:36:36.905Z,0.98
2018-03-21T07:37:36.820Z,1.01
2018-03-21T07:38:58.737Z,1.04
2018-03-21T07:39:36.645Z,1.10
2018-03-21T07:40:36.560Z,1.13
2018-03-21T07:41:36.470Z,1.10
2018-03-21T07:42:36.385Z,1.13
2018-03-21T07:43:36.307Z,1.22
2018-03-21T07:44:36.229Z,1.28
2018-03-21T07:45:36.124Z,1.19
2018-03-21T07:46:36.040Z,1.28
2018-03-21T07:47:35.975Z,1.34
2018-03-21T07:48:35.865Z,1.40
2018-03-21T07:49:35.781Z,1.49
2018-03-21T07:50:35.701Z,1.48
2018-03-21T07:51:35.617Z,1.44
2018-03-21T07:52:35.537Z,1.53
2018-03-21T07:53:35.435Z,1.53
2018-03-21T07:54:35.348Z,1.53
2018-03-21T07:55:35.272Z,1.59
2018-03-21T07:56:35.174Z,1.67
2018-03-21T07:57:35.105Z,1.70
2018-03-21T07:58:35.023Z,1.71
2018-03-21T07:59:34.916Z,1.73
2018-03-21T08:00:34.830Z,1.77
2018-03-21T08:01:34.752Z,1.78
2018-03-21T08:02:34.660Z,1.87
2018-03-21T08:03:34.574Z,1.92
2018-03-21T08:04:34.491Z,1.94
2018-03-21T08:05:34.434Z,1.99
2018-03-21T08:06:34.330Z,1.95
2018-03-21T08:07:34.231Z,1.94
2018-03-21T08:08:34.152Z,2.04
2018-03-21T08:09:34.064Z,2.15
2018-03-21T08:10:33.974Z,2.11
2018-03-21T08:11:33.890Z,2.07
2018-03-21T08:12:33.809Z,2.11
2018-03-21T08:13:33.725Z,2.18
2018-03-21T08:14:33.678Z,2.25
2018-03-21T08:15:33.586Z,2.25
2018-03-21T08:16:33.463Z,2.25
2018-03-21T08:17:33.377Z,2.35
2018-03-21T08:18:33.294Z,2.42
2018-03-21T08:19:33.209Z,2.44
2018-03-21T08:20:33.133Z,2.38
2018-03-21T08:21:33.040Z,2.43
2018-03-21T08:22:36.280Z,2.35
2018-03-21T08:23:32.866Z,2.33
2018-03-21T08:24:32.785Z,2.38
2018-03-21T08:25:32.702Z,2.33
2018-03-21T08:26:32.614Z,2.38
2018-03-21T08:27:32.526Z,2.42
2018-03-21T08:28:32.442Z,2.44
2018-03-21T08:29:32.360Z,2.42
2018-03-21T08:30:32.280Z,2.61
2018-03-21T08:31:32.185Z,2.60
2018-03-21T08:32:32.103Z,2.56
2018-03-21T08:33:32.015Z,2.67
2018-03-21T08:34:31.933Z,2.75
2018-03-21T08:35:31.846Z,2.77
2018-03-21T08:36:31.762Z,2.85
2018-03-21T08:37:31.678Z,2.85
2018-03-21T08:38:31.609Z,3.00
2018-03-21T08:39:31.511Z,3.05
2018-03-21T08:40:31.439Z,3.03
2018-03-21T08:41:31.338Z,2.97
2018-03-21T08:42:31.257Z,2.86
2018-03-21T08:43:31.181Z,2.93
2018-03-21T08:44:31.090Z,2.85
2018-03-21T08:45:31.000Z,2.93
2018-03-21T08:46:30.976Z,2.89
2018-03-21T08:47:30.836Z,2.83
2018-03-21T08:48:30.748Z,2.83
2018-03-21T08:49:30.664Z,2.83
2018-03-21T08:50:30.582Z,2.79
2018-03-21T08:51:30.494Z,2.85
2018-03-21T08:52:30.446Z,2.82
2018-03-21T08:53:30.325Z,2.77
2018-03-21T08:54:30.241Z,2.71
2018-03-21T08:55:30.161Z,2.72
2018-03-21T08:56:30.112Z,2.67
2018-03-21T08:57:29.989Z,2.72
2018-03-21T08:58:29.901Z,2.72
2018-03-21T08:59:29.820Z,2.71
2018-03-21T09:00:29.735Z,2.62
2018-03-21T09:01:29.755Z,2.61
2018-03-21T09:02:29.565Z,2.64
2018-03-21T09:03:29.478Z,2.71
2018-03-21T09:04:29.396Z,2.74
2018-03-21T09:05:29.312Z,2.65
2018-03-21T09:06:29.224Z,2.74
2018-03-21T09:07:29.163Z,2.56
2018-03-21T09:08:29.070Z,2.61
2018-03-21T09:09:28.970Z,2.60
2018-03-21T09:10:28.884Z,2.62
2018-03-21T09:11:28.799Z,2.57
2018-03-21T09:12:28.713Z,2.74
2018-03-21T09:13:28.629Z,2.75
2018-03-21T09:14:28.546Z,2.79
2018-03-21T09:15:28.460Z,2.83
2018-03-21T09:16:28.411Z,2.93
2018-03-21T09:17:28.303Z,2.98
2018-03-21T09:18:28.206Z,3.07
2018-03-21T09:19:28.118Z,3.11
2018-03-21T09:20:28.035Z,3.19
2018-03-21T09:21:27.950Z,3.16
2018-03-21T09:22:27.865Z,3.23
2018-03-21T09:23:27.780Z,3.23
2018-03-21T09:24:27.697Z,3.18
2018-03-21T09:25:27.612Z,3.23
2018-03-21T09:26:27.533Z,3.11
2018-03-21T09:27:27.446Z,3.19
2018-03-21T09:28:27.358Z,3.13
2018-03-21T09:29:27.273Z,3.14
2018-03-21T09:30:27.198Z,3.13
2018-03-21T09:31:27.104Z,3.16
2018-03-21T09:32:27.019Z,3.21
2018-03-21T09:33:26.935Z,3.14
2018-03-21T09:34:26.853Z,3.11
2018-03-21T09:35:26.770Z,3.23
2018-03-21T09:36:26.707Z,3.29
2018-03-21T09:37:26.638Z,3.31
2018-03-21T09:38:26.513Z,3.25
2018-03-21T09:39:26.431Z,3.44
2018-03-21T09:40:26.347Z,3.47
2018-03-21T09:41:26.260Z,3.41
2018-03-21T09:42:26.173Z,3.40
2018-03-21T09:43:26.089Z,3.34
2018-03-21T09:44:26.007Z,3.28
2018-03-21T09:45:25.942Z,3.32
2018-03-21T09:46:25.834Z,3.37
2018-03-21T09:47:25.752Z,3.34
2018-03-21T09:48:25.690Z,3.32
2018-03-21T09:49:25.608Z,3.37
2018-03-21T09:50:25.512Z,3.31
2018-03-21T09:51:25.411Z,3.31
2018-03-21T09:52:25.336Z,3.26
2018-03-21T09:53:25.245Z,3.29
2018-03-21T09:54:25.159Z,3.25
2018-03-21T09:55:25.078Z,3.34
2018-03-21T09:56:24.991Z,3.42
2018-03-21T09:57:24.906Z,3.29
2018-03-21T09:58:24.826Z,3.42
2018-03-21T09:59:24.735Z,3.47
2018-03-21T10:00:24.656Z,3.50
2018-03-21T10:01:25.326Z,3.68
2018-03-21T10:02:24.485Z,3.62
2018-03-21T10:03:24.402Z,3.59
2018-03-21T10:04:24.312Z,3.53
2018-03-21T10:05:24.261Z,3.66
2018-03-21T10:06:24.149Z,3.70
2018-03-21T10:07:24.061Z,3.69
2018-03-21T10:08:23.974Z,3.70
2018-03-21T10:09:23.891Z,3.76
2018-03-21T10:10:23.808Z,3.76
2018-03-21T10:11:23.723Z,3.74
2018-03-21T10:12:23.637Z,3.74
2018-03-21T10:13:23.559Z,3.74
2018-03-21T10:14:23.522Z,3.81
2018-03-21T10:15:23.431Z,3.77
2018-03-21T10:16:23.300Z,3.77
2018-03-21T10:17:23.220Z,3.77
2018-03-21T10:18:23.131Z,3.70
2018-03-21T10:19:23.748Z,3.76
2018-03-21T10:20:22.961Z,3.76
2018-03-21T10:21:22.880Z,3.87
2018-03-21T10:22:22.810Z,3.94
2018-03-21T10:23:22.770Z,3.86
2018-03-21T10:24:22.628Z,3.88
2018-03-21T10:25:23.336Z,3.88
2018-03-21T10:26:23.250Z,3.98
2018-03-21T10:27:22.374Z,3.96
2018-03-21T10:28:22.293Z,4.02
2018-03-21T10:29:22.221Z,4.13
2018-03-21T10:30:22.139Z,4.20
2018-03-21T10:31:22.039Z,4.34
2018-03-21T10:32:21.959Z,4.40
2018-03-21T10:33:21.883Z,4.44
2018-03-21T10:34:21.795Z,4.48
2018-03-21T10:35:21.702Z,4.53
2018-03-21T10:36:21.616Z,4.56
2018-03-21T10:37:21.570Z,4.62
2018-03-21T10:38:21.455Z,4.66
2018-03-21T10:39:22.254Z,4.60
2018-03-21T10:40:21.283Z,4.60
2018-03-21T10:41:21.204Z,4.68
2018-03-21T10:42:21.121Z,4.73
2018-03-21T10:43:21.034Z,4.75
2018-03-21T10:44:20.953Z,4.73
2018-03-21T10:45:20.866Z,4.80
2018-03-21T10:46:20.784Z,4.87
2018-03-21T10:47:20.709Z,4.82
2018-03-21T10:48:20.617Z,4.82
2018-03-21T10:49:20.533Z,4.92
2018-03-21T10:50:20.543Z,4.99
2018-03-21T10:51:20.364Z,5.02
2018-03-21T10:52:20.286Z,5.10
2018-03-21T10:53:20.202Z,5.07
2018-03-21T10:54:20.125Z,5.17
2018-03-21T10:55:20.032Z,5.12
2018-03-21T10:56:19.949Z,5.07
2018-03-21T10:57:19.873Z,5.15
2018-03-21T10:58:19.783Z,5.18
2018-03-21T10:59:19.724Z,5.17
2018-03-21T11:00:19.636Z,5.32
2018-03-21T11:01:19.535Z,5.32
2018-03-21T11:02:19.468Z,5.43
2018-03-21T11:03:19.369Z,5.56
2018-03-21T11:04:19.283Z,5.61
2018-03-21T11:05:19.203Z,5.62
2018-03-21T11:06:19.120Z,5.71
2018-03-21T11:07:19.039Z,5.71
2018-03-21T11:08:18.955Z,5.75
2018-03-21T11:09:18.871Z,5.82
2018-03-21T11:10:18.790Z,5.79
2018-03-21T11:11:18.752Z,5.90
2018-03-21T11:12:18.636Z,5.97
2018-03-21T11:13:18.542Z,6.11
2018-03-21T11:14:18.464Z,6.07
2018-03-21T11:15:18.381Z,6.11
2018-03-21T11:16:18.293Z,6.17
2018-03-21T11:17:18.213Z,6.27
2018-03-21T11:18:18.130Z,6.20
2018-03-21T11:19:18.096Z,6.26
2018-03-21T11:20:17.970Z,6.39
2018-03-21T11:21:17.896Z,6.44
2018-03-21T11:22:17.803Z,6.45
2018-03-21T11:23:17.727Z,6.59
2018-03-21T11:24:17.638Z,6.62
2018-03-21T11:25:17.594Z,6.54
2018-03-21T11:26:17.492Z,6.69
2018-03-21T11:27:17.394Z,6.69
2018-03-21T11:28:17.314Z,6.69
2018-03-21T11:29:17.233Z,6.72
2018-03-21T11:30:17.164Z,6.84
2018-03-21T11:31:17.069Z,6.95
2018-03-21T11:32:16.986Z,7.02
2018-03-21T11:33:16.907Z,7.32
2018-03-21T11:34:16.827Z,7.38
2018-03-21T11:35:16.746Z,7.54
2018-03-21T11:36:16.665Z,7.70
2018-03-21T11:37:16.592Z,7.90
2018-03-21T11:38:16.509Z,8.16
2018-03-21T11:39:16.428Z,8.27
2018-03-21T11:40:16.355Z,8.42
2018-03-21T11:41:16.269Z,8.52
2018-03-21T11:42:16.193Z,8.45
2018-03-21T11:43:16.111Z,8.74
2018-03-21T11:44:16.045Z,9.44
2018-03-21T11:45:15.958Z,10.20
2018-03-21T11:46:15.888Z,10.99
2018-03-21T11:47:15.807Z,11.33
2018-03-21T11:48:15.733Z,10.67
2018-03-21T11:49:15.661Z,10.34
2018-03-21T11:50:15.588Z,11.45
2018-03-21T11:51:15.548Z,12.65
2018-03-21T11:52:15.436Z,13.37
2018-03-21T11:53:15.376Z,14.15
2018-03-21T11:54:15.296Z,14.94
2018-03-21T11:55:15.221Z,15.62
2018-03-21T11:56:15.151Z,16.42
2018-03-21T11:57:15.081Z,16.96
2018-03-21T11:58:15.011Z,17.22
2018-03-21T11:59:14.941Z,17.34
2018-03-21T12:00:14.874Z,17.82
2018-03-21T12:01:14.811Z,18.34
2018-03-21T12:02:14.739Z,18.83
2018-03-21T12:03:14.669Z,19.31
2018-03-21T12:04:14.621Z,19.99
2018-03-21T12:05:14.537Z,20.60
2018-03-21T12:06:14.472Z,21.11
2018-03-21T12:07:14.407Z,21.33
2018-03-21T12:08:14.346Z,21.69
2018-03-21T12:09:14.302Z,21.96
2018-03-21T12:10:14.214Z,22.04
2018-03-21T12:11:14.149Z,22.32
2018-03-21T12:12:14.098Z,22.22
2018-03-21T12:13:14.039Z,21.96
2018-03-21T12:14:13.961Z,21.76
2018-03-21T12:15:13.897Z,21.99
2018-03-21T12:16:13.844Z,22.44
2018-03-21T12:17:13.777Z,22.96
2018-03-21T12:18:13.715Z,23.40
2018-03-21T12:19:13.700Z,23.81
2018-03-21T12:20:13.591Z,24.26
2018-03-21T12:21:13.529Z,24.76
2018-03-21T12:22:13.470Z,24.96
2018-03-21T12:23:13.407Z,25.11
2018-03-21T12:24:13.349Z,24.92
2018-03-21T12:25:13.310Z,24.86
2018-03-21T12:26:13.227Z,24.66
2018-03-21T12:27:13.170Z,24.74
2018-03-21T12:28:13.109Z,24.84
2018-03-21T12:29:13.051Z,24.21
2018-03-21T12:30:12.991Z,22.00
2018-03-21T12:31:12.931Z,20.60
2018-03-21T12:32:12.875Z,20.70
2018-03-21T12:33:12.812Z,20.09
2018-03-21T12:34:12.754Z,21.48
2018-03-21T12:35:12.695Z,22.39
2018-03-21T12:36:12.639Z,22.87
2018-03-21T12:37:12.580Z,23.03
2018-03-21T12:38:12.592Z,23.28
2018-03-21T12:39:12.451Z,23.66
2018-03-21T12:40:12.390Z,23.80
2018-03-21T12:41:12.338Z,23.99
2018-03-21T12:42:12.275Z,24.14
2018-03-21T12:43:12.211Z,24.51
2018-03-21T12:44:12.151Z,24.76
2018-03-21T12:45:12.094Z,24.95
2018-03-21T12:46:12.032Z,25.28
2018-03-21T12:47:11.974Z,25.32
2018-03-21T12:48:11.918Z,25.41
2018-03-21T12:49:11.860Z,25.43
2018-03-21T12:50:11.861Z,25.47
2018-03-21T12:51:11.739Z,25.47
2018-03-21T12:52:11.684Z,25.17
2018-03-21T12:53:11.629Z,24.70
2018-03-21T12:54:11.567Z,24.13
2018-03-21T12:55:11.510Z,24.05
2018-03-21T12:56:11.605Z,23.93
2018-03-21T12:57:11.394Z,24.50
2018-03-21T12:58:11.346Z,23.77
2018-03-21T12:59:11.279Z,21.80
2018-03-21T13:00:11.223Z,20.55
2018-03-21T13:01:11.167Z,19.96
2018-03-21T13:02:11.107Z,19.62
2018-03-21T13:03:11.048Z,19.70
2018-03-21T13:04:10.989Z,20.55
2018-03-21T13:05:10.930Z,20.02
2018-03-21T13:06:10.880Z,20.43
2018-03-21T13:07:10.815Z,20.04
2018-03-21T13:08:10.762Z,19.30
2018-03-21T13:09:10.698Z,18.53
2018-03-21T13:10:10.635Z,18.44
2018-03-21T13:11:10.571Z,19.56
2018-03-21T13:12:10.509Z,20.11
2018-03-21T13:13:10.448Z,18.86